sensor_id;sensor_type;location;lat;lon;timestamp;pressure;altitude;pressure_sealevel;temperature;humidity
26112;BME280;13829;48.990;8.346;2023-02-02T00:02:17;101258.94;;;6.62;100.00
26112;BME280;13829;48.990;8.346;2023-02-02T00:04:43;101257.16;;;6.61;100.00
26112;BME280;13829;48.990;8.346;2023-02-02T00:07:10;101250.78;;;6.52;100.00
26112;BME280;13829;48.990;8.346;2023-02-02T00:09:37;101255.13;;;6.52;100.00
26112;BME280;13829;48.990;8.346;2023-02-02T00:12:04;101254.69;;;6.64;100.00
26112;BME280;13829;48.990;8.346;2023-02-02T00:14:31;101260.69;;;6.61;100.00
26112;BME280;13829;48.990;8.346;2023-02-02T00:16:58;101254.28;;;6.53;100.00
26112;BME280;13829;48.990;8.346;2023-02-02T00:19:28;101249.78;;;6.49;100.00
26112;BME280;13829;48.990;8.346;2023-02-02T00:21:56;101253.22;;;6.48;100.00
26112;BME280;13829;48.990;8.346;2023-02-02T00:24:24;101259.34;;;6.48;100.00
26112;BME280;13829;48.990;8.346;2023-02-02T00:26:53;101256.59;;;6.44;100.00
26112;BME280;13829;48.990;8.346;2023-02-02T00:29:23;101255.31;;;6.32;100.00
26112;BME280;13829;48.990;8.346;2023-02-02T00:31:51;101253.06;;;6.43;100.00
26112;BME280;13829;48.990;8.346;2023-02-02T00:34:18;101257.47;;;6.44;100.00
26112;BME280;13829;48.990;8.346;2023-02-02T00:36:48;101254.47;;;6.33;100.00
26112;BME280;13829;48.990;8.346;2023-02-02T00:39:19;101251.75;;;6.30;100.00
26112;BME280;13829;48.990;8.346;2023-02-02T00:41:47;101259.13;;;6.42;100.00
26112;BME280;13829;48.990;8.346;2023-02-02T00:44:14;101256.34;;;6.38;100.00
26112;BME280;13829;48.990;8.346;2023-02-02T00:46:58;101254.03;;;6.45;100.00
26112;BME280;13829;48.990;8.346;2023-02-02T00:49:25;101242.47;;;6.39;100.00
26112;BME280;13829;48.990;8.346;2023-02-02T00:51:53;101254.81;;;6.43;100.00
26112;BME280;13829;48.990;8.346;2023-02-02T00:54:20;101247.69;;;6.39;100.00
26112;BME280;13829;48.990;8.346;2023-02-02T00:56:47;101246.13;;;6.44;100.00
26112;BME280;13829;48.990;8.346;2023-02-02T00:59:14;101245.91;;;6.38;100.00
26112;BME280;13829;48.990;8.346;2023-02-02T01:01:41;101241.13;;;6.50;100.00
26112;BME280;13829;48.990;8.346;2023-02-02T01:04:08;101235.78;;;6.47;100.00
26112;BME280;13829;48.990;8.346;2023-02-02T01:06:35;101239.56;;;6.55;100.00
26112;BME280;13829;48.990;8.346;2023-02-02T01:09:04;101256.25;;;6.59;100.00
26112;BME280;13829;48.990;8.346;2023-02-02T01:11:31;101255.25;;;6.55;100.00
26112;BME280;13829;48.990;8.346;2023-02-02T01:13:57;101261.16;;;6.51;100.00
26112;BME280;13829;48.990;8.346;2023-02-02T01:16:24;101262.16;;;6.55;100.00
26112;BME280;13829;48.990;8.346;2023-02-02T01:18:52;101275.19;;;6.53;100.00
26112;BME280;13829;48.990;8.346;2023-02-02T01:21:19;101281.59;;;6.61;100.00
26112;BME280;13829;48.990;8.346;2023-02-02T01:23:46;101276.38;;;6.61;100.00
26112;BME280;13829;48.990;8.346;2023-02-02T01:26:16;101287.53;;;6.57;100.00
26112;BME280;13829;48.990;8.346;2023-02-02T01:28:43;101283.13;;;6.56;100.00
26112;BME280;13829;48.990;8.346;2023-02-02T01:31:13;101292.59;;;6.52;100.00
26112;BME280;13829;48.990;8.346;2023-02-02T01:33:41;101288.34;;;6.56;100.00
26112;BME280;13829;48.990;8.346;2023-02-02T01:36:12;101288.22;;;6.51;100.00
26112;BME280;13829;48.990;8.346;2023-02-02T01:38:40;101283.25;;;6.59;100.00
26112;BME280;13829;48.990;8.346;2023-02-02T01:41:11;101284.31;;;6.64;100.00
26112;BME280;13829;48.990;8.346;2023-02-02T01:43:56;101287.00;;;6.67;100.00
26112;BME280;13829;48.990;8.346;2023-02-02T01:46:26;101282.00;;;6.74;100.00
26112;BME280;13829;48.990;8.346;2023-02-02T01:49:04;101283.69;;;6.72;100.00
26112;BME280;13829;48.990;8.346;2023-02-02T01:51:46;101281.59;;;6.61;100.00
26112;BME280;13829;48.990;8.346;2023-02-02T01:54:22;101274.81;;;6.66;100.00
26112;BME280;13829;48.990;8.346;2023-02-02T01:56:55;101286.19;;;6.68;100.00
26112;BME280;13829;48.990;8.346;2023-02-02T01:59:26;101279.03;;;6.63;100.00
26112;BME280;13829;48.990;8.346;2023-02-02T02:01:54;101282.56;;;6.65;100.00
26112;BME280;13829;48.990;8.346;2023-02-02T02:04:23;101277.50;;;6.69;100.00
26112;BME280;13829;48.990;8.346;2023-02-02T02:06:51;101265.41;;;6.72;100.00
26112;BME280;13829;48.990;8.346;2023-02-02T02:09:19;101265.59;;;6.78;100.00
26112;BME280;13829;48.990;8.346;2023-02-02T02:11:47;101266.31;;;6.74;100.00
26112;BME280;13829;48.990;8.346;2023-02-02T02:14:15;101259.22;;;6.69;100.00
26112;BME280;13829;48.990;8.346;2023-02-02T02:17:30;101266.69;;;6.59;100.00
26112;BME280;13829;48.990;8.346;2023-02-02T02:20:43;101260.03;;;6.68;100.00
26112;BME280;13829;48.990;8.346;2023-02-02T02:24:24;101244.47;;;6.72;100.00
26112;BME280;13829;48.990;8.346;2023-02-02T02:27:58;101250.63;;;6.74;100.00
26112;BME280;13829;48.990;8.346;2023-02-02T02:30:54;101257.56;;;6.72;100.00
26112;BME280;13829;48.990;8.346;2023-02-02T02:33:35;101262.44;;;6.62;100.00
26112;BME280;13829;48.990;8.346;2023-02-02T02:36:15;101271.44;;;6.71;100.00
26112;BME280;13829;48.990;8.346;2023-02-02T02:38:49;101269.97;;;6.79;100.00
26112;BME280;13829;48.990;8.346;2023-02-02T02:41:22;101266.53;;;6.80;100.00
26112;BME280;13829;48.990;8.346;2023-02-02T02:43:58;101273.44;;;6.78;100.00
26112;BME280;13829;48.990;8.346;2023-02-02T02:46:27;101275.31;;;6.82;100.00
26112;BME280;13829;48.990;8.346;2023-02-02T02:48:57;101273.63;;;6.84;100.00
26112;BME280;13829;48.990;8.346;2023-02-02T02:51:46;101261.63;;;6.89;100.00
26112;BME280;13829;48.990;8.346;2023-02-02T02:54:17;101268.63;;;6.90;100.00
26112;BME280;13829;48.990;8.346;2023-02-02T02:57:04;101259.06;;;6.91;100.00
26112;BME280;13829;48.990;8.346;2023-02-02T02:59:46;101264.16;;;6.88;100.00
26112;BME280;13829;48.990;8.346;2023-02-02T03:02:32;101264.34;;;6.66;100.00
26112;BME280;13829;48.990;8.346;2023-02-02T03:05:16;101263.88;;;6.78;100.00
26112;BME280;13829;48.990;8.346;2023-02-02T03:07:56;101257.44;;;6.68;100.00
26112;BME280;13829;48.990;8.346;2023-02-02T03:10:28;101261.94;;;6.73;100.00
26112;BME280;13829;48.990;8.346;2023-02-02T03:12:57;101260.81;;;6.66;100.00
26112;BME280;13829;48.990;8.346;2023-02-02T03:15:24;101265.78;;;6.58;100.00
26112;BME280;13829;48.990;8.346;2023-02-02T03:17:53;101274.47;;;6.57;100.00
26112;BME280;13829;48.990;8.346;2023-02-02T03:20:21;101267.06;;;6.69;100.00
26112;BME280;13829;48.990;8.346;2023-02-02T03:22:48;101269.13;;;6.54;100.00
26112;BME280;13829;48.990;8.346;2023-02-02T03:25:15;101278.38;;;6.70;100.00
26112;BME280;13829;48.990;8.346;2023-02-02T03:27:42;101269.66;;;6.69;100.00
26112;BME280;13829;48.990;8.346;2023-02-02T03:30:12;101266.31;;;6.74;100.00
26112;BME280;13829;48.990;8.346;2023-02-02T03:32:40;101262.22;;;6.56;100.00
26112;BME280;13829;48.990;8.346;2023-02-02T03:35:08;101257.34;;;6.65;100.00
26112;BME280;13829;48.990;8.346;2023-02-02T03:37:37;101260.78;;;6.64;100.00
26112;BME280;13829;48.990;8.346;2023-02-02T03:40:05;101265.78;;;6.58;100.00
26112;BME280;13829;48.990;8.346;2023-02-02T03:42:32;101269.41;;;6.62;100.00
26112;BME280;13829;48.990;8.346;2023-02-02T03:44:59;101282.38;;;6.59;100.00
26112;BME280;13829;48.990;8.346;2023-02-02T03:47:28;101284.91;;;6.57;100.00
26112;BME280;13829;48.990;8.346;2023-02-02T03:49:55;101288.78;;;6.68;100.00
26112;BME280;13829;48.990;8.346;2023-02-02T03:52:23;101280.03;;;6.66;100.00
26112;BME280;13829;48.990;8.346;2023-02-02T03:54:51;101288.47;;;6.59;100.00
26112;BME280;13829;48.990;8.346;2023-02-02T03:57:19;101291.94;;;6.58;100.00
26112;BME280;13829;48.990;8.346;2023-02-02T03:59:46;101291.88;;;6.57;100.00
26112;BME280;13829;48.990;8.346;2023-02-02T04:02:13;101277.91;;;6.56;100.00
26112;BME280;13829;48.990;8.346;2023-02-02T04:04:39;101274.22;;;6.51;100.00
26112;BME280;13829;48.990;8.346;2023-02-02T04:07:06;101272.56;;;6.53;100.00
26112;BME280;13829;48.990;8.346;2023-02-02T04:09:33;101278.03;;;6.59;100.00
26112;BME280;13829;48.990;8.346;2023-02-02T04:12:02;101278.03;;;6.59;100.00
26112;BME280;13829;48.990;8.346;2023-02-02T04:14:29;101292.88;;;6.60;100.00
26112;BME280;13829;48.990;8.346;2023-02-02T04:16:56;101292.97;;;6.63;100.00
26112;BME280;13829;48.990;8.346;2023-02-02T04:19:22;101292.16;;;6.64;100.00
26112;BME280;13829;48.990;8.346;2023-02-02T04:21:49;101290.31;;;6.62;100.00
26112;BME280;13829;48.990;8.346;2023-02-02T04:24:16;101300.50;;;6.54;100.00
26112;BME280;13829;48.990;8.346;2023-02-02T04:26:43;101304.38;;;6.65;100.00
26112;BME280;13829;48.990;8.346;2023-02-02T04:29:12;101302.16;;;6.52;100.00
26112;BME280;13829;48.990;8.346;2023-02-02T04:31:39;101298.81;;;6.56;100.00
26112;BME280;13829;48.990;8.346;2023-02-02T04:34:05;101309.25;;;6.56;100.00
26112;BME280;13829;48.990;8.346;2023-02-02T04:36:32;101310.34;;;6.61;100.00
26112;BME280;13829;48.990;8.346;2023-02-02T04:38:59;101313.38;;;6.74;100.00
26112;BME280;13829;48.990;8.346;2023-02-02T04:41:26;101311.81;;;6.79;100.00
26112;BME280;13829;48.990;8.346;2023-02-02T04:43:53;101306.66;;;6.80;100.00
26112;BME280;13829;48.990;8.346;2023-02-02T04:46:21;101302.31;;;6.81;100.00
26112;BME280;13829;48.990;8.346;2023-02-02T04:48:48;101304.44;;;6.93;100.00
26112;BME280;13829;48.990;8.346;2023-02-02T04:51:15;101315.47;;;6.84;100.00
26112;BME280;13829;48.990;8.346;2023-02-02T04:53:43;101306.88;;;6.87;100.00
26112;BME280;13829;48.990;8.346;2023-02-02T04:56:14;101313.81;;;6.86;100.00
26112;BME280;13829;48.990;8.346;2023-02-02T04:58:41;101325.06;;;6.83;100.00
26112;BME280;13829;48.990;8.346;2023-02-02T05:01:10;101333.78;;;6.84;100.00
26112;BME280;13829;48.990;8.346;2023-02-02T05:03:39;101326.88;;;6.86;100.00
26112;BME280;13829;48.990;8.346;2023-02-02T05:06:06;101321.47;;;6.81;100.00
26112;BME280;13829;48.990;8.346;2023-02-02T05:08:34;101326.00;;;6.85;100.00
26112;BME280;13829;48.990;8.346;2023-02-02T05:11:06;101325.19;;;6.87;100.00
26112;BME280;13829;48.990;8.346;2023-02-02T05:13:33;101320.28;;;6.72;100.00
26112;BME280;13829;48.990;8.346;2023-02-02T05:16:00;101324.41;;;6.89;100.00
26112;BME280;13829;48.990;8.346;2023-02-02T05:18:27;101318.81;;;6.80;100.00
26112;BME280;13829;48.990;8.346;2023-02-02T05:21:00;101324.75;;;6.74;100.00
26112;BME280;13829;48.990;8.346;2023-02-02T05:23:27;101334.25;;;6.72;100.00
26112;BME280;13829;48.990;8.346;2023-02-02T05:25:55;101330.78;;;6.73;100.00
26112;BME280;13829;48.990;8.346;2023-02-02T05:28:23;101341.09;;;6.68;100.00
26112;BME280;13829;48.990;8.346;2023-02-02T05:30:51;101343.59;;;6.65;100.00
26112;BME280;13829;48.990;8.346;2023-02-02T05:33:18;101345.38;;;6.66;100.00
26112;BME280;13829;48.990;8.346;2023-02-02T05:35:45;101342.88;;;6.69;100.00
26112;BME280;13829;48.990;8.346;2023-02-02T05:38:14;101348.78;;;6.64;100.00
26112;BME280;13829;48.990;8.346;2023-02-02T05:40:41;101348.97;;;6.70;100.00
26112;BME280;13829;48.990;8.346;2023-02-02T05:43:08;101357.94;;;6.77;100.00
26112;BME280;13829;48.990;8.346;2023-02-02T05:45:35;101356.16;;;6.76;100.00
26112;BME280;13829;48.990;8.346;2023-02-02T05:48:02;101352.06;;;6.84;100.00
26112;BME280;13829;48.990;8.346;2023-02-02T05:50:29;101343.31;;;6.82;100.00
26112;BME280;13829;48.990;8.346;2023-02-02T05:52:57;101354.56;;;6.79;100.00
26112;BME280;13829;48.990;8.346;2023-02-02T05:55:26;101362.50;;;6.82;100.00
26112;BME280;13829;48.990;8.346;2023-02-02T05:57:52;101361.47;;;6.79;100.00
26112;BME280;13829;48.990;8.346;2023-02-02T06:00:21;101367.50;;;6.76;100.00
26112;BME280;13829;48.990;8.346;2023-02-02T06:02:48;101361.56;;;6.80;100.00
26112;BME280;13829;48.990;8.346;2023-02-02T06:05:15;101372.13;;;6.83;100.00
26112;BME280;13829;48.990;8.346;2023-02-02T06:07:42;101369.22;;;6.76;100.00
26112;BME280;13829;48.990;8.346;2023-02-02T06:10:10;101369.13;;;6.73;100.00
26112;BME280;13829;48.990;8.346;2023-02-02T06:12:38;101381.91;;;6.65;100.00
26112;BME280;13829;48.990;8.346;2023-02-02T06:15:06;101391.81;;;6.74;100.00
26112;BME280;13829;48.990;8.346;2023-02-02T06:17:33;101374.69;;;6.82;100.00
26112;BME280;13829;48.990;8.346;2023-02-02T06:20:00;101389.91;;;6.69;100.00
26112;BME280;13829;48.990;8.346;2023-02-02T06:22:27;101393.72;;;6.78;100.00
26112;BME280;13829;48.990;8.346;2023-02-02T06:24:55;101382.53;;;6.82;100.00
26112;BME280;13829;48.990;8.346;2023-02-02T06:27:21;101393.81;;;6.81;100.00
26112;BME280;13829;48.990;8.346;2023-02-02T06:29:50;101386.81;;;6.80;100.00
26112;BME280;13829;48.990;8.346;2023-02-02T06:32:17;101381.34;;;6.74;100.00
26112;BME280;13829;48.990;8.346;2023-02-02T06:34:43;101389.31;;;6.77;100.00
26112;BME280;13829;48.990;8.346;2023-02-02T06:37:10;101389.03;;;6.69;100.00
26112;BME280;13829;48.990;8.346;2023-02-02T06:39:37;101385.03;;;6.79;100.00
26112;BME280;13829;48.990;8.346;2023-02-02T06:42:05;101393.72;;;6.78;100.00
26112;BME280;13829;48.990;8.346;2023-02-02T06:44:31;101389.91;;;6.69;100.00
26112;BME280;13829;48.990;8.346;2023-02-02T06:47:00;101391.72;;;6.71;100.00
26112;BME280;13829;48.990;8.346;2023-02-02T06:49:27;101388.91;;;6.66;100.00
26112;BME280;13829;48.990;8.346;2023-02-02T06:51:53;101370.00;;;6.73;100.00
26112;BME280;13829;48.990;8.346;2023-02-02T06:54:20;101361.16;;;6.69;100.00
26112;BME280;13829;48.990;8.346;2023-02-02T06:56:47;101371.66;;;6.71;100.00
26112;BME280;13829;48.990;8.346;2023-02-02T06:59:14;101382.91;;;6.68;100.00
26112;BME280;13829;48.990;8.346;2023-02-02T07:01:41;101375.06;;;6.68;100.00
26112;BME280;13829;48.990;8.346;2023-02-02T07:04:09;101372.50;;;6.70;100.00
26112;BME280;13829;48.990;8.346;2023-02-02T07:06:38;101365.38;;;6.66;100.00
26112;BME280;13829;48.990;8.346;2023-02-02T07:09:05;101361.34;;;6.74;100.00
26112;BME280;13829;48.990;8.346;2023-02-02T07:11:32;101353.44;;;6.73;100.00
26112;BME280;13829;48.990;8.346;2023-02-02T07:14:01;101356.66;;;6.65;100.00
26112;BME280;13829;48.990;8.346;2023-02-02T07:16:29;101355.25;;;6.51;100.00
26112;BME280;13829;48.990;8.346;2023-02-02T07:18:56;101370.47;;;6.61;100.00
26112;BME280;13829;48.990;8.346;2023-02-02T07:21:26;101364.66;;;6.70;100.00
26112;BME280;13829;48.990;8.346;2023-02-02T07:23:54;101370.56;;;6.64;100.00
26112;BME280;13829;48.990;8.346;2023-02-02T07:26:21;101374.91;;;6.64;100.00
26112;BME280;13829;48.990;8.346;2023-02-02T07:28:48;101371.03;;;6.77;100.00
26112;BME280;13829;48.990;8.346;2023-02-02T07:31:19;101363.28;;;6.80;100.00
26112;BME280;13829;48.990;8.346;2023-02-02T07:33:47;101360.16;;;6.90;100.00
26112;BME280;13829;48.990;8.346;2023-02-02T07:36:17;101355.88;;;6.92;100.00
26112;BME280;13829;48.990;8.346;2023-02-02T07:38:47;101369.69;;;6.88;100.00
26112;BME280;13829;48.990;8.346;2023-02-02T07:41:15;101365.38;;;6.90;100.00
26112;BME280;13829;48.990;8.346;2023-02-02T07:43:45;101363.53;;;6.88;100.00
26112;BME280;13829;48.990;8.346;2023-02-02T07:46:13;101353.47;;;6.98;100.00
26112;BME280;13829;48.990;8.346;2023-02-02T07:48:40;101362.53;;;6.84;100.00
26112;BME280;13829;48.990;8.346;2023-02-02T07:51:10;101361.00;;;6.89;100.00
26112;BME280;13829;48.990;8.346;2023-02-02T07:53:37;101366.56;;;6.98;100.00
26112;BME280;13829;48.990;8.346;2023-02-02T07:56:11;101365.63;;;6.98;100.00
26112;BME280;13829;48.990;8.346;2023-02-02T07:58:39;101363.31;;;7.06;100.00
26112;BME280;13829;48.990;8.346;2023-02-02T08:01:09;101371.25;;;7.09;100.00
26112;BME280;13829;48.990;8.346;2023-02-02T08:03:37;101381.19;;;7.19;100.00
26112;BME280;13829;48.990;8.346;2023-02-02T08:06:10;101388.31;;;7.23;100.00
26112;BME280;13829;48.990;8.346;2023-02-02T08:08:38;101390.00;;;7.21;100.00
26112;BME280;13829;48.990;8.346;2023-02-02T08:11:10;101385.59;;;7.20;100.00
26112;BME280;13829;48.990;8.346;2023-02-02T08:13:37;101386.66;;;7.25;100.00
26112;BME280;13829;48.990;8.346;2023-02-02T08:16:05;101395.53;;;7.30;100.00
26112;BME280;13829;48.990;8.346;2023-02-02T08:18:33;101402.47;;;7.28;100.00
26112;BME280;13829;48.990;8.346;2023-02-02T08:21:05;101416.47;;;7.30;100.00
26112;BME280;13829;48.990;8.346;2023-02-02T08:23:33;101422.66;;;7.32;100.00
26112;BME280;13829;48.990;8.346;2023-02-02T08:26:09;101429.88;;;7.40;100.00
26112;BME280;13829;48.990;8.346;2023-02-02T08:28:37;101422.88;;;7.39;100.00
26112;BME280;13829;48.990;8.346;2023-02-02T08:31:07;101432.41;;;7.37;100.00
26112;BME280;13829;48.990;8.346;2023-02-02T08:33:35;101432.56;;;7.41;100.00
26112;BME280;13829;48.990;8.346;2023-02-02T08:36:03;101444.53;;;7.34;100.00
26112;BME280;13829;48.990;8.346;2023-02-02T08:38:30;101436.31;;;7.49;100.00
26112;BME280;13829;48.990;8.346;2023-02-02T08:41:04;101439.84;;;7.50;100.00
26112;BME280;13829;48.990;8.346;2023-02-02T08:43:33;101450.97;;;7.44;100.00
26112;BME280;13829;48.990;8.346;2023-02-02T08:46:00;101441.78;;;7.56;100.00
26112;BME280;13829;48.990;8.346;2023-02-02T08:48:27;101435.59;;;7.54;100.00
26112;BME280;13829;48.990;8.346;2023-02-02T08:50:57;101447.84;;;7.55;100.00
26112;BME280;13829;48.990;8.346;2023-02-02T08:53:25;101447.06;;;7.57;100.00
26112;BME280;13829;48.990;8.346;2023-02-02T08:55:57;101440.56;;;7.72;100.00
26112;BME280;13829;48.990;8.346;2023-02-02T08:58:25;101439.19;;;7.83;100.00
26112;BME280;13829;48.990;8.346;2023-02-02T09:00:54;101453.16;;;7.83;100.00
26112;BME280;13829;48.990;8.346;2023-02-02T09:03:21;101455.78;;;7.83;99.83
26112;BME280;13829;48.990;8.346;2023-02-02T09:05:47;101459.94;;;7.77;100.00
26112;BME280;13829;48.990;8.346;2023-02-02T09:08:14;101453.88;;;7.78;99.77
26112;BME280;13829;48.990;8.346;2023-02-02T09:10:41;101453.88;;;7.78;100.00
26112;BME280;13829;48.990;8.346;2023-02-02T09:13:08;101453.22;;;7.85;99.98
26112;BME280;13829;48.990;8.346;2023-02-02T09:15:35;101455.59;;;7.77;100.00
26112;BME280;13829;48.990;8.346;2023-02-02T09:18:04;101458.66;;;7.91;99.14
26112;BME280;13829;48.990;8.346;2023-02-02T09:20:31;101451.84;;;7.96;100.00
26112;BME280;13829;48.990;8.346;2023-02-02T09:22:58;101453.41;;;7.91;100.00
26112;BME280;13829;48.990;8.346;2023-02-02T09:25:25;101450.13;;;7.97;99.46
26112;BME280;13829;48.990;8.346;2023-02-02T09:27:52;101432.94;;;8.07;99.47
26112;BME280;13829;48.990;8.346;2023-02-02T09:30:20;101433.94;;;8.10;97.79
26112;BME280;13829;48.990;8.346;2023-02-02T09:32:48;101429.41;;;8.05;98.09
26112;BME280;13829;48.990;8.346;2023-02-02T09:35:17;101436.44;;;8.06;97.85
26112;BME280;13829;48.990;8.346;2023-02-02T09:37:44;101442.47;;;8.03;98.23
26112;BME280;13829;48.990;8.346;2023-02-02T09:40:15;101445.13;;;8.05;98.15
26112;BME280;13829;48.990;8.346;2023-02-02T09:43:01;101450.25;;;8.02;98.70
26112;BME280;13829;48.990;8.346;2023-02-02T09:45:41;101450.19;;;7.98;97.62
26112;BME280;13829;48.990;8.346;2023-02-02T09:48:25;101459.06;;;8.04;98.04
26112;BME280;13829;48.990;8.346;2023-02-02T09:51:02;101468.84;;;8.09;97.42
26112;BME280;13829;48.990;8.346;2023-02-02T09:53:41;101459.34;;;8.13;97.73
26112;BME280;13829;48.990;8.346;2023-02-02T09:56:20;101434.09;;;8.15;97.31
26112;BME280;13829;48.990;8.346;2023-02-02T09:58:53;101442.03;;;8.18;96.85
26112;BME280;13829;48.990;8.346;2023-02-02T10:01:26;101431.06;;;8.30;96.80
26112;BME280;13829;48.990;8.346;2023-02-02T10:04:02;101434.81;;;8.38;95.88
26112;BME280;13829;48.990;8.346;2023-02-02T10:06:37;101426.09;;;8.39;96.78
26112;BME280;13829;48.990;8.346;2023-02-02T10:09:25;101428.41;;;8.57;95.66
26112;BME280;13829;48.990;8.346;2023-02-02T10:12:02;101435.78;;;8.69;94.24
26112;BME280;13829;48.990;8.346;2023-02-02T10:14:39;101447.69;;;8.88;94.15
26112;BME280;13829;48.990;8.346;2023-02-02T10:17:25;101458.25;;;8.91;92.29
26112;BME280;13829;48.990;8.346;2023-02-02T10:20:02;101463.66;;;8.96;91.45
26112;BME280;13829;48.990;8.346;2023-02-02T10:22:33;101469.56;;;8.89;91.72
26112;BME280;13829;48.990;8.346;2023-02-02T10:25:01;101472.91;;;8.83;92.11
26112;BME280;13829;48.990;8.346;2023-02-02T10:27:36;101474.34;;;8.73;92.46
26112;BME280;13829;48.990;8.346;2023-02-02T10:30:15;101472.53;;;8.71;92.43
26112;BME280;13829;48.990;8.346;2023-02-02T10:32:48;101469.91;;;8.71;93.63
26112;BME280;13829;48.990;8.346;2023-02-02T10:35:34;101471.97;;;8.81;93.88
26112;BME280;13829;48.990;8.346;2023-02-02T10:38:16;101482.31;;;8.76;92.94
26112;BME280;13829;48.990;8.346;2023-02-02T10:41:01;101470.31;;;8.85;92.89
26112;BME280;13829;48.990;8.346;2023-02-02T10:44:05;101475.03;;;8.96;91.83
26112;BME280;13829;48.990;8.346;2023-02-02T10:46:39;101476.63;;;8.91;91.83
26112;BME280;13829;48.990;8.346;2023-02-02T10:49:20;101467.66;;;8.83;91.91
26112;BME280;13829;48.990;8.346;2023-02-02T10:51:54;101470.13;;;8.78;92.68
26112;BME280;13829;48.990;8.346;2023-02-02T10:54:46;101469.72;;;8.64;92.83
26112;BME280;13829;48.990;8.346;2023-02-02T10:57:32;101472.50;;;8.69;91.94
26112;BME280;13829;48.990;8.346;2023-02-02T11:00:09;101459.94;;;8.59;92.74
26112;BME280;13829;48.990;8.346;2023-02-02T11:02:36;101462.50;;;8.57;93.24
26112;BME280;13829;48.990;8.346;2023-02-02T11:05:04;101459.09;;;8.60;93.65
26112;BME280;13829;48.990;8.346;2023-02-02T11:07:50;101474.22;;;8.69;92.59
26112;BME280;13829;48.990;8.346;2023-02-02T11:10:20;101474.16;;;8.67;92.05
26112;BME280;13829;48.990;8.346;2023-02-02T11:12:49;101476.75;;;8.65;92.36
26112;BME280;13829;48.990;8.346;2023-02-02T11:15:29;101485.19;;;8.55;92.21
26112;BME280;13829;48.990;8.346;2023-02-02T11:18:12;101476.63;;;8.62;92.45
26112;BME280;13829;48.990;8.346;2023-02-02T11:20:41;101485.06;;;8.52;92.08
26112;BME280;13829;48.990;8.346;2023-02-02T11:23:17;101498.28;;;8.55;93.09
26112;BME280;13829;48.990;8.346;2023-02-02T11:25:57;101503.22;;;8.46;92.99
26112;BME280;13829;48.990;8.346;2023-02-02T11:28:30;101498.00;;;8.46;92.35
26112;BME280;13829;48.990;8.346;2023-02-02T11:31:00;101506.63;;;8.43;93.47
26112;BME280;13829;48.990;8.346;2023-02-02T11:33:29;101502.41;;;8.47;93.59
26112;BME280;13829;48.990;8.346;2023-02-02T11:36:00;101490.25;;;8.49;92.83
26112;BME280;13829;48.990;8.346;2023-02-02T11:38:28;101490.31;;;8.52;92.67
26112;BME280;13829;48.990;8.346;2023-02-02T11:40:59;101496.34;;;8.49;93.74
26112;BME280;13829;48.990;8.346;2023-02-02T11:43:31;101495.38;;;8.46;92.56
26112;BME280;13829;48.990;8.346;2023-02-02T11:46:02;101487.38;;;8.43;92.79
26112;BME280;13829;48.990;8.346;2023-02-02T11:48:34;101487.66;;;8.51;93.38
26112;BME280;13829;48.990;8.346;2023-02-02T11:51:04;101476.94;;;8.44;92.90
26112;BME280;13829;48.990;8.346;2023-02-02T11:53:36;101472.59;;;8.45;92.72
26112;BME280;13829;48.990;8.346;2023-02-02T11:56:19;101475.22;;;8.45;92.62
26112;BME280;13829;48.990;8.346;2023-02-02T11:58:49;101475.56;;;8.56;92.11
26112;BME280;13829;48.990;8.346;2023-02-02T12:01:24;101479.94;;;8.55;92.34
26112;BME280;13829;48.990;8.346;2023-02-02T12:03:53;101470.56;;;8.63;92.47
26112;BME280;13829;48.990;8.346;2023-02-02T12:06:23;101455.47;;;8.56;91.97
26112;BME280;13829;48.990;8.346;2023-02-02T12:08:56;101462.50;;;8.57;92.04
26112;BME280;13829;48.990;8.346;2023-02-02T12:11:54;101469.53;;;8.58;92.06
26112;BME280;13829;48.990;8.346;2023-02-02T12:14:40;101454.00;;;8.64;91.23
26112;BME280;13829;48.990;8.346;2023-02-02T12:17:25;101452.66;;;8.79;91.33
26112;BME280;13829;48.990;8.346;2023-02-02T12:20:24;101443.06;;;8.79;90.69
26112;BME280;13829;48.990;8.346;2023-02-02T12:23:28;101445.72;;;8.81;90.80
26112;BME280;13829;48.990;8.346;2023-02-02T12:26:13;101439.53;;;8.79;90.34
26112;BME280;13829;48.990;8.346;2023-02-02T12:29:06;101445.66;;;8.78;91.76
26112;BME280;13829;48.990;8.346;2023-02-02T12:31:58;101464.22;;;8.86;90.84
26112;BME280;13829;48.990;8.346;2023-02-02T12:34:44;101461.53;;;8.84;90.02
26112;BME280;13829;48.990;8.346;2023-02-02T12:37:28;101463.50;;;8.91;90.25
26112;BME280;13829;48.990;8.346;2023-02-02T12:40:17;101464.72;;;9.04;89.47
26112;BME280;13829;48.990;8.346;2023-02-02T12:43:06;101466.44;;;9.02;89.97
26112;BME280;13829;48.990;8.346;2023-02-02T12:46:06;101466.28;;;8.96;89.03
26112;BME280;13829;48.990;8.346;2023-02-02T12:48:49;101463.13;;;9.09;89.28
26112;BME280;13829;48.990;8.346;2023-02-02T12:51:56;101470.78;;;9.02;88.60
26112;BME280;13829;48.990;8.346;2023-02-02T12:54:44;101475.16;;;9.01;90.21
26112;BME280;13829;48.990;8.346;2023-02-02T12:57:21;101472.22;;;8.90;90.26
26112;BME280;13829;48.990;8.346;2023-02-02T13:00:14;101479.78;;;8.79;91.58
26112;BME280;13829;48.990;8.346;2023-02-02T13:03:05;101475.41;;;8.80;91.36
26112;BME280;13829;48.990;8.346;2023-02-02T13:05:57;101474.25;;;8.70;91.89
26112;BME280;13829;48.990;8.346;2023-02-02T13:08:35;101478.81;;;8.76;91.59
26112;BME280;13829;48.990;8.346;2023-02-02T13:11:16;101472.69;;;8.75;92.71
26112;BME280;13829;48.990;8.346;2023-02-02T13:13:59;101470.59;;;8.65;92.30
26112;BME280;13829;48.990;8.346;2023-02-02T13:16:34;101479.56;;;8.72;93.51
26112;BME280;13829;48.990;8.346;2023-02-02T13:19:07;101482.25;;;8.75;92.80
26112;BME280;13829;48.990;8.346;2023-02-02T13:21:39;101475.00;;;8.66;93.42